sensor_id;sensor_type;location;lat;lon;timestamp;P1;durP1;ratioP1;P2;durP2;ratioP2
72319;SDS011;60269;52.502;16.732;2023-05-20T00:00:07;8.77;;;3.30;;
72319;SDS011;60269;52.502;16.732;2023-05-20T00:04:00;10.07;;;4.25;;
72319;SDS011;60269;52.502;16.732;2023-05-20T00:07:32;14.57;;;3.73;;
72319;SDS011;60269;52.502;16.732;2023-05-20T00:11:04;10.77;;;3.67;;
72319;SDS011;60269;52.502;16.732;2023-05-20T00:14:37;11.68;;;3.38;;
72319;SDS011;60269;52.502;16.732;2023-05-20T00:18:08;8.50;;;3.47;;
72319;SDS011;60269;52.502;16.732;2023-05-20T00:21:41;10.40;;;3.40;;
72319;SDS011;60269;52.502;16.732;2023-05-20T00:25:13;10.80;;;3.72;;
72319;SDS011;60269;52.502;16.732;2023-05-20T00:28:45;8.48;;;3.33;;
72319;SDS011;60269;52.502;16.732;2023-05-20T00:32:18;9.57;;;3.50;;
72319;SDS011;60269;52.502;16.732;2023-05-20T00:35:50;11.30;;;3.13;;
72319;SDS011;60269;52.502;16.732;2023-05-20T00:39:22;11.45;;;4.38;;
72319;SDS011;60269;52.502;16.732;2023-05-20T00:42:54;11.57;;;3.33;;
72319;SDS011;60269;52.502;16.732;2023-05-20T00:46:26;11.63;;;3.90;;
72319;SDS011;60269;52.502;16.732;2023-05-20T00:50:00;12.43;;;3.40;;
72319;SDS011;60269;52.502;16.732;2023-05-20T00:53:33;8.20;;;2.97;;
72319;SDS011;60269;52.502;16.732;2023-05-20T00:57:07;8.40;;;3.10;;
72319;SDS011;60269;52.502;16.732;2023-05-20T01:00:40;7.27;;;2.43;;
72319;SDS011;60269;52.502;16.732;2023-05-20T01:04:12;9.37;;;2.97;;
72319;SDS011;60269;52.502;16.732;2023-05-20T01:07:44;9.88;;;2.67;;
72319;SDS011;60269;52.502;16.732;2023-05-20T01:15:08;8.03;;;2.40;;
72319;SDS011;60269;52.502;16.732;2023-05-20T01:18:42;7.20;;;2.00;;
72319;SDS011;60269;52.502;16.732;2023-05-20T01:22:14;7.28;;;2.58;;
72319;SDS011;60269;52.502;16.732;2023-05-20T01:25:47;7.53;;;2.08;;
72319;SDS011;60269;52.502;16.732;2023-05-20T01:29:19;6.68;;;2.40;;
72319;SDS011;60269;52.502;16.732;2023-05-20T01:32:54;7.00;;;2.30;;
72319;SDS011;60269;52.502;16.732;2023-05-20T01:36:47;7.80;;;2.50;;
72319;SDS011;60269;52.502;16.732;2023-05-20T01:40:20;8.85;;;2.45;;
72319;SDS011;60269;52.502;16.732;2023-05-20T01:43:54;6.17;;;2.20;;
72319;SDS011;60269;52.502;16.732;2023-05-20T01:47:26;6.63;;;2.27;;
72319;SDS011;60269;52.502;16.732;2023-05-20T01:50:59;7.60;;;2.03;;
72319;SDS011;60269;52.502;16.732;2023-05-20T01:54:30;8.00;;;2.13;;
72319;SDS011;60269;52.502;16.732;2023-05-20T01:58:03;8.63;;;1.83;;
72319;SDS011;60269;52.502;16.732;2023-05-20T02:01:35;8.63;;;2.67;;
72319;SDS011;60269;52.502;16.732;2023-05-20T02:05:07;9.38;;;2.63;;
72319;SDS011;60269;52.502;16.732;2023-05-20T02:08:39;8.25;;;2.42;;
72319;SDS011;60269;52.502;16.732;2023-05-20T02:12:11;7.83;;;2.17;;
72319;SDS011;60269;52.502;16.732;2023-05-20T02:15:47;8.07;;;1.83;;
72319;SDS011;60269;52.502;16.732;2023-05-20T02:19:19;8.50;;;2.17;;
72319;SDS011;60269;52.502;16.732;2023-05-20T02:22:54;7.10;;;1.88;;
72319;SDS011;60269;52.502;16.732;2023-05-20T02:26:26;6.10;;;1.90;;
72319;SDS011;60269;52.502;16.732;2023-05-20T02:29:59;7.07;;;2.10;;
72319;SDS011;60269;52.502;16.732;2023-05-20T02:33:34;7.97;;;2.15;;
72319;SDS011;60269;52.502;16.732;2023-05-20T02:37:06;6.63;;;2.13;;
72319;SDS011;60269;52.502;16.732;2023-05-20T02:40:38;10.43;;;2.37;;
72319;SDS011;60269;52.502;16.732;2023-05-20T02:44:10;8.70;;;1.97;;
72319;SDS011;60269;52.502;16.732;2023-05-20T02:47:42;6.47;;;2.00;;
72319;SDS011;60269;52.502;16.732;2023-05-20T02:51:14;7.82;;;2.20;;
72319;SDS011;60269;52.502;16.732;2023-05-20T02:54:46;7.60;;;2.00;;
72319;SDS011;60269;52.502;16.732;2023-05-20T02:58:18;11.03;;;2.30;;
72319;SDS011;60269;52.502;16.732;2023-05-20T03:01:57;9.93;;;2.35;;
72319;SDS011;60269;52.502;16.732;2023-05-20T03:05:29;6.80;;;2.28;;
72319;SDS011;60269;52.502;16.732;2023-05-20T03:09:01;5.60;;;1.97;;
72319;SDS011;60269;52.502;16.732;2023-05-20T03:12:33;6.45;;;1.98;;
72319;SDS011;60269;52.502;16.732;2023-05-20T03:16:05;6.63;;;2.30;;
72319;SDS011;60269;52.502;16.732;2023-05-20T03:19:37;8.93;;;2.05;;
72319;SDS011;60269;52.502;16.732;2023-05-20T03:23:09;9.60;;;2.30;;
72319;SDS011;60269;52.502;16.732;2023-05-20T03:26:41;9.48;;;2.20;;
72319;SDS011;60269;52.502;16.732;2023-05-20T03:30:14;8.48;;;2.38;;
72319;SDS011;60269;52.502;16.732;2023-05-20T03:33:46;6.80;;;2.17;;
72319;SDS011;60269;52.502;16.732;2023-05-20T03:37:17;6.87;;;1.87;;
72319;SDS011;60269;52.502;16.732;2023-05-20T03:40:49;9.13;;;2.05;;
72319;SDS011;60269;52.502;16.732;2023-05-20T03:44:21;6.85;;;2.00;;
72319;SDS011;60269;52.502;16.732;2023-05-20T03:47:53;6.17;;;1.90;;
72319;SDS011;60269;52.502;16.732;2023-05-20T03:51:26;14.20;;;2.70;;
72319;SDS011;60269;52.502;16.732;2023-05-20T03:54:58;7.30;;;2.28;;
72319;SDS011;60269;52.502;16.732;2023-05-20T03:58:30;7.65;;;2.03;;
72319;SDS011;60269;52.502;16.732;2023-05-20T04:02:03;6.93;;;2.07;;
72319;SDS011;60269;52.502;16.732;2023-05-20T04:05:35;7.80;;;2.03;;
72319;SDS011;60269;52.502;16.732;2023-05-20T04:09:08;6.45;;;1.90;;
72319;SDS011;60269;52.502;16.732;2023-05-20T04:12:40;8.93;;;2.03;;
72319;SDS011;60269;52.502;16.732;2023-05-20T04:16:12;8.35;;;2.55;;
72319;SDS011;60269;52.502;16.732;2023-05-20T04:19:43;9.63;;;1.97;;
72319;SDS011;60269;52.502;16.732;2023-05-20T04:23:15;6.80;;;2.35;;
72319;SDS011;60269;52.502;16.732;2023-05-20T04:26:47;6.15;;;1.95;;
72319;SDS011;60269;52.502;16.732;2023-05-20T04:30:19;9.07;;;2.00;;
72319;SDS011;60269;52.502;16.732;2023-05-20T04:33:52;7.57;;;1.90;;
72319;SDS011;60269;52.502;16.732;2023-05-20T04:37:25;7.57;;;2.33;;
72319;SDS011;60269;52.502;16.732;2023-05-20T04:40:57;7.30;;;2.25;;
72319;SDS011;60269;52.502;16.732;2023-05-20T04:44:32;8.73;;;2.30;;
72319;SDS011;60269;52.502;16.732;2023-05-20T04:48:04;6.70;;;2.43;;
72319;SDS011;60269;52.502;16.732;2023-05-20T04:51:37;9.63;;;2.80;;
72319;SDS011;60269;52.502;16.732;2023-05-20T04:55:09;6.45;;;2.00;;
72319;SDS011;60269;52.502;16.732;2023-05-20T04:58:42;7.80;;;2.17;;
72319;SDS011;60269;52.502;16.732;2023-05-20T05:02:15;10.23;;;2.17;;
72319;SDS011;60269;52.502;16.732;2023-05-20T05:05:47;8.75;;;2.45;;
72319;SDS011;60269;52.502;16.732;2023-05-20T05:09:19;7.05;;;2.08;;
72319;SDS011;60269;52.502;16.732;2023-05-20T05:12:52;7.93;;;2.43;;
72319;SDS011;60269;52.502;16.732;2023-05-20T05:16:24;7.50;;;2.10;;
72319;SDS011;60269;52.502;16.732;2023-05-20T05:19:57;7.82;;;2.25;;
72319;SDS011;60269;52.502;16.732;2023-05-20T05:23:29;9.05;;;2.35;;
72319;SDS011;60269;52.502;16.732;2023-05-20T05:27:01;6.30;;;1.87;;
72319;SDS011;60269;52.502;16.732;2023-05-20T05:30:34;6.97;;;2.03;;
72319;SDS011;60269;52.502;16.732;2023-05-20T05:34:06;9.68;;;1.90;;
72319;SDS011;60269;52.502;16.732;2023-05-20T05:37:38;7.75;;;2.40;;
72319;SDS011;60269;52.502;16.732;2023-05-20T05:41:10;7.30;;;2.50;;
72319;SDS011;60269;52.502;16.732;2023-05-20T05:44:42;9.30;;;2.50;;
72319;SDS011;60269;52.502;16.732;2023-05-20T05:48:14;7.38;;;2.88;;
72319;SDS011;60269;52.502;16.732;2023-05-20T05:51:46;7.07;;;2.72;;
72319;SDS011;60269;52.502;16.732;2023-05-20T05:55:18;7.53;;;2.83;;
72319;SDS011;60269;52.502;16.732;2023-05-20T05:58:50;7.33;;;2.60;;
72319;SDS011;60269;52.502;16.732;2023-05-20T06:02:22;10.68;;;2.70;;
72319;SDS011;60269;52.502;16.732;2023-05-20T06:05:56;8.35;;;2.60;;
72319;SDS011;60269;52.502;16.732;2023-05-20T06:09:28;8.33;;;2.97;;
72319;SDS011;60269;52.502;16.732;2023-05-20T06:13:00;7.80;;;2.97;;
72319;SDS011;60269;52.502;16.732;2023-05-20T06:16:32;9.48;;;3.08;;
72319;SDS011;60269;52.502;16.732;2023-05-20T06:20:05;8.85;;;3.05;;
72319;SDS011;60269;52.502;16.732;2023-05-20T06:23:38;8.07;;;3.03;;
72319;SDS011;60269;52.502;16.732;2023-05-20T06:27:09;9.73;;;3.17;;
72319;SDS011;60269;52.502;16.732;2023-05-20T06:30:42;6.82;;;2.65;;
72319;SDS011;60269;52.502;16.732;2023-05-20T06:34:13;9.93;;;3.20;;
72319;SDS011;60269;52.502;16.732;2023-05-20T06:37:46;7.22;;;2.65;;
72319;SDS011;60269;52.502;16.732;2023-05-20T06:41:18;8.47;;;2.90;;
72319;SDS011;60269;52.502;16.732;2023-05-20T06:44:50;9.18;;;2.67;;
72319;SDS011;60269;52.502;16.732;2023-05-20T06:48:21;8.73;;;3.13;;
72319;SDS011;60269;52.502;16.732;2023-05-20T06:51:54;8.73;;;3.40;;
72319;SDS011;60269;52.502;16.732;2023-05-20T06:55:26;8.20;;;2.47;;
72319;SDS011;60269;52.502;16.732;2023-05-20T06:58:58;7.15;;;2.67;;
72319;SDS011;60269;52.502;16.732;2023-05-20T07:02:31;9.77;;;2.78;;
72319;SDS011;60269;52.502;16.732;2023-05-20T07:06:04;8.37;;;2.57;;
72319;SDS011;60269;52.502;16.732;2023-05-20T07:09:39;7.37;;;2.60;;
72319;SDS011;60269;52.502;16.732;2023-05-20T07:13:11;10.35;;;2.97;;
72319;SDS011;60269;52.502;16.732;2023-05-20T07:16:43;7.88;;;2.35;;
72319;SDS011;60269;52.502;16.732;2023-05-20T07:20:16;8.10;;;2.47;;
72319;SDS011;60269;52.502;16.732;2023-05-20T07:23:47;8.57;;;3.00;;
72319;SDS011;60269;52.502;16.732;2023-05-20T07:27:20;7.38;;;2.60;;
72319;SDS011;60269;52.502;16.732;2023-05-20T07:30:51;6.80;;;2.63;;
72319;SDS011;60269;52.502;16.732;2023-05-20T07:34:26;11.32;;;2.97;;
72319;SDS011;60269;52.502;16.732;2023-05-20T07:37:59;7.40;;;2.40;;
72319;SDS011;60269;52.502;16.732;2023-05-20T07:41:30;9.18;;;2.97;;
72319;SDS011;60269;52.502;16.732;2023-05-20T07:45:02;6.57;;;2.22;;
72319;SDS011;60269;52.502;16.732;2023-05-20T07:48:35;7.40;;;2.90;;
72319;SDS011;60269;52.502;16.732;2023-05-20T07:52:07;10.20;;;2.73;;
72319;SDS011;60269;52.502;16.732;2023-05-20T07:55:39;7.80;;;2.40;;
72319;SDS011;60269;52.502;16.732;2023-05-20T07:59:11;9.02;;;3.00;;
72319;SDS011;60269;52.502;16.732;2023-05-20T08:02:43;7.88;;;2.42;;
72319;SDS011;60269;52.502;16.732;2023-05-20T08:06:16;11.57;;;4.23;;
72319;SDS011;60269;52.502;16.732;2023-05-20T08:09:51;7.57;;;3.15;;
72319;SDS011;60269;52.502;16.732;2023-05-20T08:13:23;7.82;;;2.95;;
72319;SDS011;60269;52.502;16.732;2023-05-20T08:16:55;7.82;;;3.17;;
72319;SDS011;60269;52.502;16.732;2023-05-20T08:20:28;8.57;;;3.60;;
72319;SDS011;60269;52.502;16.732;2023-05-20T08:24:00;9.30;;;4.50;;
72319;SDS011;60269;52.502;16.732;2023-05-20T08:27:32;10.68;;;4.40;;
72319;SDS011;60269;52.502;16.732;2023-05-20T08:31:04;9.18;;;4.20;;
72319;SDS011;60269;52.502;16.732;2023-05-20T08:34:36;11.23;;;4.60;;
72319;SDS011;60269;52.502;16.732;2023-05-20T08:38:10;8.00;;;3.73;;
72319;SDS011;60269;52.502;16.732;2023-05-20T08:41:42;11.45;;;4.22;;
72319;SDS011;60269;52.502;16.732;2023-05-20T08:45:38;9.48;;;4.55;;
72319;SDS011;60269;52.502;16.732;2023-05-20T08:49:11;9.93;;;4.55;;
72319;SDS011;60269;52.502;16.732;2023-05-20T08:52:43;9.67;;;3.97;;
72319;SDS011;60269;52.502;16.732;2023-05-20T08:56:17;9.85;;;4.60;;
72319;SDS011;60269;52.502;16.732;2023-05-20T08:59:49;11.25;;;5.03;;
72319;SDS011;60269;52.502;16.732;2023-05-20T09:03:22;10.55;;;4.47;;
72319;SDS011;60269;52.502;16.732;2023-05-20T09:06:54;10.40;;;4.25;;
72319;SDS011;60269;52.502;16.732;2023-05-20T09:10:27;9.03;;;4.03;;
72319;SDS011;60269;52.502;16.732;2023-05-20T09:13:59;9.77;;;3.95;;
72319;SDS011;60269;52.502;16.732;2023-05-20T09:17:33;8.98;;;3.72;;
72319;SDS011;60269;52.502;16.732;2023-05-20T09:21:06;11.25;;;4.35;;
72319;SDS011;60269;52.502;16.732;2023-05-20T09:24:41;9.77;;;3.77;;
72319;SDS011;60269;52.502;16.732;2023-05-20T09:28:14;9.32;;;3.47;;
72319;SDS011;60269;52.502;16.732;2023-05-20T09:31:47;10.23;;;4.38;;
72319;SDS011;60269;52.502;16.732;2023-05-20T09:35:21;10.98;;;3.55;;
72319;SDS011;60269;52.502;16.732;2023-05-20T09:38:54;8.73;;;3.87;;
72319;SDS011;60269;52.502;16.732;2023-05-20T09:42:38;9.23;;;4.57;;
72319;SDS011;60269;52.502;16.732;2023-05-20T09:46:17;10.38;;;4.18;;
72319;SDS011;60269;52.502;16.732;2023-05-20T09:49:51;10.20;;;4.47;;
72319;SDS011;60269;52.502;16.732;2023-05-20T09:53:27;9.05;;;4.10;;
72319;SDS011;60269;52.502;16.732;2023-05-20T09:56:59;10.47;;;5.07;;
72319;SDS011;60269;52.502;16.732;2023-05-20T10:00:31;8.68;;;4.47;;
72319;SDS011;60269;52.502;16.732;2023-05-20T10:04:05;10.70;;;4.30;;
72319;SDS011;60269;52.502;16.732;2023-05-20T10:11:44;10.97;;;4.20;;
72319;SDS011;60269;52.502;16.732;2023-05-20T10:19:33;13.82;;;4.72;;
72319;SDS011;60269;52.502;16.732;2023-05-20T10:23:05;10.90;;;4.70;;
72319;SDS011;60269;52.502;16.732;2023-05-20T10:26:37;11.77;;;4.30;;
72319;SDS011;60269;52.502;16.732;2023-05-20T10:30:16;10.83;;;4.40;;
72319;SDS011;60269;52.502;16.732;2023-05-20T10:33:52;11.95;;;4.90;;
72319;SDS011;60269;52.502;16.732;2023-05-20T10:37:29;12.07;;;4.50;;
72319;SDS011;60269;52.502;16.732;2023-05-20T10:41:09;10.27;;;4.65;;
72319;SDS011;60269;52.502;16.732;2023-05-20T10:44:44;10.57;;;4.63;;
72319;SDS011;60269;52.502;16.732;2023-05-20T10:48:30;9.23;;;4.80;;
72319;SDS011;60269;52.502;16.732;2023-05-20T10:52:05;10.38;;;4.78;;
72319;SDS011;60269;52.502;16.732;2023-05-20T10:55:45;13.98;;;5.07;;
72319;SDS011;60269;52.502;16.732;2023-05-20T10:59:22;11.50;;;4.95;;
72319;SDS011;60269;52.502;16.732;2023-05-20T11:02:55;9.87;;;5.10;;
72319;SDS011;60269;52.502;16.732;2023-05-20T11:06:27;11.45;;;5.00;;
72319;SDS011;60269;52.502;16.732;2023-05-20T11:09:59;14.65;;;5.53;;
72319;SDS011;60269;52.502;16.732;2023-05-20T11:13:31;9.18;;;4.60;;
72319;SDS011;60269;52.502;16.732;2023-05-20T11:17:03;11.43;;;4.70;;
72319;SDS011;60269;52.502;16.732;2023-05-20T11:20:38;11.67;;;4.90;;
72319;SDS011;60269;52.502;16.732;2023-05-20T11:24:10;10.63;;;4.72;;
72319;SDS011;60269;52.502;16.732;2023-05-20T11:27:43;8.80;;;4.60;;
72319;SDS011;60269;52.502;16.732;2023-05-20T11:31:17;10.95;;;4.50;;
72319;SDS011;60269;52.502;16.732;2023-05-20T11:34:50;9.43;;;4.93;;
72319;SDS011;60269;52.502;16.732;2023-05-20T11:38:22;10.30;;;6.10;;
72319;SDS011;60269;52.502;16.732;2023-05-20T11:41:55;12.77;;;6.25;;
72319;SDS011;60269;52.502;16.732;2023-05-20T11:45:38;11.20;;;5.18;;
72319;SDS011;60269;52.502;16.732;2023-05-20T11:49:11;16.03;;;5.70;;
72319;SDS011;60269;52.502;16.732;2023-05-20T11:52:44;10.87;;;6.27;;
72319;SDS011;60269;52.502;16.732;2023-05-20T11:56:16;12.05;;;6.20;;
72319;SDS011;60269;52.502;16.732;2023-05-20T11:59:49;10.13;;;6.10;;
72319;SDS011;60269;52.502;16.732;2023-05-20T12:03:21;12.25;;;6.30;;
72319;SDS011;60269;52.502;16.732;2023-05-20T12:06:53;17.63;;;6.83;;
72319;SDS011;60269;52.502;16.732;2023-05-20T12:10:26;10.07;;;6.05;;
72319;SDS011;60269;52.502;16.732;2023-05-20T12:13:58;9.48;;;5.50;;
72319;SDS011;60269;52.502;16.732;2023-05-20T12:17:43;10.18;;;5.85;;
72319;SDS011;60269;52.502;16.732;2023-05-20T12:21:17;9.67;;;5.80;;
72319;SDS011;60269;52.502;16.732;2023-05-20T12:24:49;11.63;;;5.50;;
72319;SDS011;60269;52.502;16.732;2023-05-20T12:28:25;10.63;;;5.80;;
72319;SDS011;60269;52.502;16.732;2023-05-20T12:31:57;10.15;;;5.88;;
72319;SDS011;60269;52.502;16.732;2023-05-20T12:35:36;9.77;;;5.43;;
72319;SDS011;60269;52.502;16.732;2023-05-20T12:39:10;10.85;;;6.32;;
72319;SDS011;60269;52.502;16.732;2023-05-20T12:42:43;10.85;;;7.18;;
72319;SDS011;60269;52.502;16.732;2023-05-20T12:46:14;11.68;;;6.60;;
72319;SDS011;60269;52.502;16.732;2023-05-20T12:49:47;9.63;;;6.20;;
72319;SDS011;60269;52.502;16.732;2023-05-20T12:53:19;9.90;;;6.97;;
72319;SDS011;60269;52.502;16.732;2023-05-20T12:56:51;10.10;;;6.07;;
72319;SDS011;60269;52.502;16.732;2023-05-20T13:00:23;10.10;;;6.60;;
72319;SDS011;60269;52.502;16.732;2023-05-20T13:03:55;10.23;;;7.10;;
72319;SDS011;60269;52.502;16.732;2023-05-20T13:07:27;9.20;;;6.53;;
72319;SDS011;60269;52.502;16.732;2023-05-20T13:10:59;9.43;;;6.07;;
72319;SDS011;60269;52.502;16.732;2023-05-20T13:14:31;11.87;;;6.80;;
72319;SDS011;60269;52.502;16.732;2023-05-20T13:18:03;10.67;;;5.50;;
72319;SDS011;60269;52.502;16.732;2023-05-20T13:21:40;8.90;;;6.10;;
72319;SDS011;60269;52.502;16.732;2023-05-20T13:25:12;11.75;;;6.30;;
72319;SDS011;60269;52.502;16.732;2023-05-20T13:28:44;9.93;;;6.30;;
72319;SDS011;60269;52.502;16.732;2023-05-20T13:32:16;11.53;;;6.13;;
72319;SDS011;60269;52.502;16.732;2023-05-20T13:35:48;11.68;;;6.75;;
72319;SDS011;60269;52.502;16.732;2023-05-20T13:39:21;9.05;;;5.95;;
72319;SDS011;60269;52.502;16.732;2023-05-20T13:42:53;9.07;;;6.27;;
72319;SDS011;60269;52.502;16.732;2023-05-20T13:46:25;10.17;;;6.27;;
72319;SDS011;60269;52.502;16.732;2023-05-20T13:49:57;9.02;;;5.43;;
72319;SDS011;60269;52.502;16.732;2023-05-20T13:53:33;10.70;;;6.28;;
72319;SDS011;60269;52.502;16.732;2023-05-20T13:57:05;11.77;;;7.33;;
72319;SDS011;60269;52.502;16.732;2023-05-20T14:00:40;11.53;;;6.47;;
72319;SDS011;60269;52.502;16.732;2023-05-20T14:04:12;12.55;;;6.47;;
72319;SDS011;60269;52.502;16.732;2023-05-20T14:07:44;8.25;;;5.82;;
72319;SDS011;60269;52.502;16.732;2023-05-20T14:11:16;10.97;;;6.13;;
72319;SDS011;60269;52.502;16.732;2023-05-20T14:14:49;12.63;;;6.10;;
72319;SDS011;60269;52.502;16.732;2023-05-20T14:18:21;9.88;;;6.25;;
72319;SDS011;60269;52.502;16.732;2023-05-20T14:21:53;12.93;;;7.03;;
72319;SDS011;60269;52.502;16.732;2023-05-20T14:25:25;9.20;;;6.30;;
72319;SDS011;60269;52.502;16.732;2023-05-20T14:28:58;11.07;;;6.03;;
72319;SDS011;60269;52.502;16.732;2023-05-20T14:32:31;11.20;;;6.10;;
72319;SDS011;60269;52.502;16.732;2023-05-20T14:36:04;10.88;;;6.45;;
72319;SDS011;60269;52.502;16.732;2023-05-20T14:39:36;9.67;;;5.80;;
72319;SDS011;60269;52.502;16.732;2023-05-20T14:43:09;9.83;;;5.90;;
72319;SDS011;60269;52.502;16.732;2023-05-20T14:46:41;9.98;;;6.47;;
72319;SDS011;60269;52.502;16.732;2023-05-20T14:50:13;11.38;;;6.35;;
72319;SDS011;60269;52.502;16.732;2023-05-20T14:53:45;10.27;;;6.67;;
72319;SDS011;60269;52.502;16.732;2023-05-20T14:57:17;10.60;;;6.30;;
72319;SDS011;60269;52.502;16.732;2023-05-20T15:00:49;11.45;;;6.28;;
72319;SDS011;60269;52.502;16.732;2023-05-20T15:04:23;9.95;;;6.45;;
72319;SDS011;60269;52.502;16.732;2023-05-20T15:07:54;11.30;;;7.10;;
72319;SDS011;60269;52.502;16.732;2023-05-20T15:11:27;11.63;;;7.20;;
72319;SDS011;60269;52.502;16.732;2023-05-20T15:14:59;9.68;;;6.15;;
72319;SDS011;60269;52.502;16.732;2023-05-20T15:18:31;10.27;;;6.82;;
72319;SDS011;60269;52.502;16.732;2023-05-20T15:22:03;10.93;;;7.13;;
72319;SDS011;60269;52.502;16.732;2023-05-20T15:25:35;10.50;;;7.47;;
72319;SDS011;60269;52.502;16.732;2023-05-20T15:29:08;10.50;;;6.88;;
72319;SDS011;60269;52.502;16.732;2023-05-20T15:32:39;12.40;;;7.18;;
72319;SDS011;60269;52.502;16.732;2023-05-20T15:36:13;12.88;;;7.43;;
72319;SDS011;60269;52.502;16.732;2023-05-20T15:39:47;10.90;;;7.20;;
72319;SDS011;60269;52.502;16.732;2023-05-20T15:43:20;11.80;;;8.55;;
72319;SDS011;60269;52.502;16.732;2023-05-20T15:46:52;10.63;;;7.03;;
72319;SDS011;60269;52.502;16.732;2023-05-20T15:50:24;12.37;;;7.13;;
72319;SDS011;60269;52.502;16.732;2023-05-20T15:53:56;10.97;;;7.03;;
72319;SDS011;60269;52.502;16.732;2023-05-20T15:57:28;12.60;;;7.28;;
72319;SDS011;60269;52.502;16.732;2023-05-20T16:01:01;12.15;;;7.38;;
72319;SDS011;60269;52.502;16.732;2023-05-20T16:04:33;14.27;;;8.77;;
72319;SDS011;60269;52.502;16.732;2023-05-20T16:08:05;13.77;;;7.63;;
72319;SDS011;60269;52.502;16.732;2023-05-20T16:11:37;12.23;;;7.53;;
72319;SDS011;60269;52.502;16.732;2023-05-20T16:15:09;13.07;;;7.68;;
72319;SDS011;60269;52.502;16.732;2023-05-20T16:18:42;12.47;;;8.07;;
72319;SDS011;60269;52.502;16.732;2023-05-20T16:22:14;12.23;;;7.30;;
72319;SDS011;60269;52.502;16.732;2023-05-20T16:25:46;11.93;;;7.15;;
72319;SDS011;60269;52.502;16.732;2023-05-20T16:29:18;12.40;;;7.25;;
72319;SDS011;60269;52.502;16.732;2023-05-20T16:32:51;15.03;;;7.83;;
72319;SDS011;60269;52.502;16.732;2023-05-20T16:36:23;15.73;;;7.33;;
72319;SDS011;60269;52.502;16.732;2023-05-20T16:39:56;14.52;;;7.88;;
72319;SDS011;60269;52.502;16.732;2023-05-20T16:43:31;12.52;;;7.03;;
72319;SDS011;60269;52.502;16.732;2023-05-20T16:47:04;17.43;;;8.27;;
72319;SDS011;60269;52.502;16.732;2023-05-20T16:50:36;15.27;;;8.10;;
72319;SDS011;60269;52.502;16.732;2023-05-20T16:54:08;14.52;;;7.72;;
72319;SDS011;60269;52.502;16.732;2023-05-20T16:57:40;13.98;;;7.53;;
72319;SDS011;60269;52.502;16.732;2023-05-20T17:01:13;15.85;;;7.70;;
72319;SDS011;60269;52.502;16.732;2023-05-20T17:04:46;14.20;;;7.47;;
72319;SDS011;60269;52.502;16.732;2023-05-20T17:08:18;12.13;;;7.85;;
72319;SDS011;60269;52.502;16.732;2023-05-20T17:11:51;12.63;;;7.72;;
72319;SDS011;60269;52.502;16.732;2023-05-20T17:15:24;14.13;;;8.27;;
72319;SDS011;60269;52.502;16.732;2023-05-20T17:18:56;13.80;;;7.53;;
72319;SDS011;60269;52.502;16.732;2023-05-20T17:22:29;15.45;;;8.43;;
72319;SDS011;60269;52.502;16.732;2023-05-20T17:26:01;16.75;;;8.90;;
72319;SDS011;60269;52.502;16.732;2023-05-20T17:29:33;14.90;;;8.52;;
72319;SDS011;60269;52.502;16.732;2023-05-20T17:33:06;18.57;;;7.97;;
72319;SDS011;60269;52.502;16.732;2023-05-20T17:36:38;12.93;;;7.50;;
72319;SDS011;60269;52.502;16.732;2023-05-20T17:40:10;15.93;;;7.72;;
72319;SDS011;60269;52.502;16.732;2023-05-20T17:43:44;16.27;;;7.05;;
72319;SDS011;60269;52.502;16.732;2023-05-20T17:47:16;14.20;;;7.73;;
72319;SDS011;60269;52.502;16.732;2023-05-20T17:50:48;15.17;;;7.50;;
72319;SDS011;60269;52.502;16.732;2023-05-20T17:54:20;19.48;;;7.60;;
72319;SDS011;60269;52.502;16.732;2023-05-20T17:57:53;13.45;;;7.60;;
72319;SDS011;60269;52.502;16.732;2023-05-20T18:01:25;14.40;;;7.77;;
72319;SDS011;60269;52.502;16.732;2023-05-20T18:04:57;15.70;;;7.50;;
72319;SDS011;60269;52.502;16.732;2023-05-20T18:08:29;14.25;;;7.55;;
72319;SDS011;60269;52.502;16.732;2023-05-20T18:12:01;14.48;;;7.78;;
72319;SDS011;60269;52.502;16.732;2023-05-20T18:15:33;16.58;;;7.72;;
72319;SDS011;60269;52.502;16.732;2023-05-20T18:19:05;17.47;;;7.77;;
72319;SDS011;60269;52.502;16.732;2023-05-20T18:22:38;14.93;;;7.65;;
72319;SDS011;60269;52.502;16.732;2023-05-20T18:26:20;15.63;;;8.30;;
72319;SDS011;60269;52.502;16.732;2023-05-20T18:29:52;16.50;;;8.52;;
72319;SDS011;60269;52.502;16.732;2023-05-20T18:33:24;15.43;;;8.17;;
72319;SDS011;60269;52.502;16.732;2023-05-20T18:36:56;16.73;;;8.50;;
72319;SDS011;60269;52.502;16.732;2023-05-20T18:40:28;15.93;;;8.20;;
72319;SDS011;60269;52.502;16.732;2023-05-20T18:44:00;18.40;;;8.98;;
72319;SDS011;60269;52.502;16.732;2023-05-20T18:47:35;19.23;;;8.73;;
72319;SDS011;60269;52.502;16.732;2023-05-20T18:51:07;16.27;;;9.20;;
72319;SDS011;60269;52.502;16.732;2023-05-20T18:54:39;20.17;;;9.00;;
72319;SDS011;60269;52.502;16.732;2023-05-20T18:58:12;18.90;;;9.32;;
72319;SDS011;60269;52.502;16.732;2023-05-20T19:01:44;23.63;;;11.45;;
72319;SDS011;60269;52.502;16.732;2023-05-20T19:05:16;23.53;;;11.53;;
72319;SDS011;60269;52.502;16.732;2023-05-20T19:08:48;26.10;;;11.65;;
72319;SDS011;60269;52.502;16.732;2023-05-20T19:12:20;25.85;;;11.45;;
72319;SDS011;60269;52.502;16.732;2023-05-20T19:15:52;23.35;;;10.90;;
72319;SDS011;60269;52.502;16.732;2023-05-20T19:19:24;22.73;;;10.17;;
72319;SDS011;60269;52.502;16.732;2023-05-20T19:22:56;19.95;;;9.63;;
72319;SDS011;60269;52.502;16.732;2023-05-20T19:26:29;18.85;;;9.95;;
72319;SDS011;60269;52.502;16.732;2023-05-20T19:30:02;18.00;;;9.87;;
72319;SDS011;60269;52.502;16.732;2023-05-20T19:33:35;19.93;;;10.47;;
72319;SDS011;60269;52.502;16.732;2023-05-20T19:37:07;18.67;;;10.57;;
72319;SDS011;60269;52.502;16.732;2023-05-20T19:40:39;20.63;;;11.23;;
72319;SDS011;60269;52.502;16.732;2023-05-20T19:44:11;20.70;;;11.63;;
72319;SDS011;60269;52.502;16.732;2023-05-20T19:47:43;22.50;;;12.07;;
72319;SDS011;60269;52.502;16.732;2023-05-20T19:51:15;23.20;;;11.70;;
72319;SDS011;60269;52.502;16.732;2023-05-20T19:59:08;18.73;;;10.32;;
72319;SDS011;60269;52.502;16.732;2023-05-20T20:02:40;18.23;;;9.37;;
72319;SDS011;60269;52.502;16.732;2023-05-20T20:06:12;23.75;;;10.45;;
72319;SDS011;60269;52.502;16.732;2023-05-20T20:09:44;19.92;;;11.52;;
72319;SDS011;60269;52.502;16.732;2023-05-20T20:13:18;21.90;;;11.77;;
72319;SDS011;60269;52.502;16.732;2023-05-20T20:16:50;21.97;;;11.90;;
72319;SDS011;60269;52.502;16.732;2023-05-20T20:20:24;24.45;;;11.60;;
72319;SDS011;60269;52.502;16.732;2023-05-20T20:23:59;18.55;;;10.02;;
72319;SDS011;60269;52.502;16.732;2023-05-20T20:27:32;21.05;;;11.05;;
72319;SDS011;60269;52.502;16.732;2023-05-20T20:31:03;17.57;;;10.33;;
72319;SDS011;60269;52.502;16.732;2023-05-20T20:34:36;19.45;;;10.60;;
72319;SDS011;60269;52.502;16.732;2023-05-20T20:38:08;17.88;;;11.35;;
72319;SDS011;60269;52.502;16.732;2023-05-20T20:41:40;22.23;;;12.43;;
72319;SDS011;60269;52.502;16.732;2023-05-20T20:45:15;22.90;;;13.60;;
72319;SDS011;60269;52.502;16.732;2023-05-20T20:48:47;24.73;;;14.05;;
72319;SDS011;60269;52.502;16.732;2023-05-20T20:52:21;19.60;;;11.88;;
72319;SDS011;60269;52.502;16.732;2023-05-20T20:55:52;25.00;;;12.40;;
72319;SDS011;60269;52.502;16.732;2023-05-20T20:59:26;23.23;;;11.57;;
72319;SDS011;60269;52.502;16.732;2023-05-20T21:02:58;20.17;;;11.65;;
72319;SDS011;60269;52.502;16.732;2023-05-20T21:06:30;24.60;;;13.07;;